createdAt,value
2023-04-20T00:04:33.081Z,3.08
2023-04-20T00:09:34.545Z,3.55
2023-04-20T00:14:36.056Z,4.07
2023-04-20T00:19:37.489Z,4.53
2023-04-20T00:24:39.070Z,4.53
2023-04-20T00:29:40.487Z,4.45
2023-04-20T00:34:41.929Z,3.47
2023-04-20T00:39:43.375Z,4.18
2023-04-20T00:44:44.841Z,3.88
2023-04-20T00:49:46.351Z,4.55
2023-04-20T00:54:48.529Z,4.20
2023-04-20T00:59:51.159Z,4.55
2023-04-20T01:04:52.594Z,4.85
2023-04-20T01:09:54.059Z,6.18
2023-04-20T01:14:55.592Z,3.70
2023-04-20T01:19:57.042Z,5.40
2023-04-20T01:24:58.533Z,3.65
2023-04-20T01:30:01.441Z,5.28
2023-04-20T01:35:03.502Z,8.50
2023-04-20T01:40:05.858Z,5.00
2023-04-20T01:45:08.189Z,6.60
2023-04-20T01:50:10.588Z,4.63
2023-04-20T01:55:12.025Z,4.90
2023-04-20T02:00:14.089Z,4.57
2023-04-20T02:05:18.707Z,4.25
2023-04-20T02:10:20.196Z,6.43
2023-04-20T02:15:21.810Z,6.07
2023-04-20T02:20:23.515Z,4.80
2023-04-20T02:25:24.974Z,4.47
2023-04-20T02:30:26.590Z,8.98
2023-04-20T02:35:28.014Z,6.10
2023-04-20T02:40:29.493Z,6.15
2023-04-20T02:45:32.997Z,6.75
2023-04-20T02:50:34.597Z,6.35
2023-04-20T02:55:49.845Z,6.85
2023-04-20T03:01:11.021Z,5.55
2023-04-20T03:06:13.602Z,5.85
2023-04-20T03:11:19.628Z,5.68
2023-04-20T03:16:21.681Z,6.05
2023-04-20T03:21:25.983Z,6.10
2023-04-20T03:26:27.590Z,4.90
2023-04-20T03:31:41.565Z,7.15
2023-04-20T03:36:45.343Z,5.60
2023-04-20T03:41:46.870Z,6.50
2023-04-20T03:46:48.307Z,11.98
2023-04-20T03:51:49.793Z,7.85
2023-04-20T03:56:51.231Z,7.53
2023-04-20T04:01:53.414Z,6.40
2023-04-20T04:06:55.385Z,5.80
2023-04-20T04:11:58.855Z,7.57
2023-04-20T04:17:03.029Z,8.68
2023-04-20T04:22:06.692Z,8.13
2023-04-20T04:27:13.110Z,8.52
2023-04-20T04:32:23.204Z,7.40
2023-04-20T04:37:25.015Z,9.00
2023-04-20T04:42:30.031Z,6.70
2023-04-20T04:47:35.688Z,6.20
2023-04-20T04:52:37.261Z,7.93
2023-04-20T04:57:38.858Z,6.55
2023-04-20T05:02:40.849Z,6.82
2023-04-20T05:07:42.564Z,7.78
2023-04-20T05:12:44.013Z,8.77
2023-04-20T05:17:45.550Z,8.15
2023-04-20T05:22:47.132Z,8.35
2023-04-20T05:27:48.660Z,7.20
2023-04-20T05:32:52.168Z,7.55
2023-04-20T05:37:54.029Z,8.32
2023-04-20T05:42:55.450Z,9.60
2023-04-20T05:47:57.413Z,8.70
2023-04-20T05:52:59.022Z,11.50
2023-04-20T05:58:00.467Z,10.25
2023-04-20T06:03:02.207Z,7.32
2023-04-20T06:08:04.073Z,7.97
2023-04-20T06:13:05.645Z,9.07
2023-04-20T06:18:07.200Z,7.35
2023-04-20T06:23:08.691Z,11.20
2023-04-20T06:28:10.170Z,7.70
2023-04-20T06:33:12.460Z,8.02
2023-04-20T06:38:14.110Z,6.93
2023-04-20T06:43:15.596Z,7.25
2023-04-20T06:48:30.684Z,6.82
2023-04-20T06:53:33.427Z,8.02
2023-04-20T06:58:34.901Z,8.85
2023-04-20T07:03:36.623Z,12.10
2023-04-20T07:08:39.308Z,7.07
2023-04-20T07:13:40.792Z,6.80
2023-04-20T07:18:42.366Z,8.15
2023-04-20T07:23:45.107Z,8.13
2023-04-20T07:28:46.819Z,6.03
2023-04-20T07:33:48.275Z,6.30
2023-04-20T07:38:49.824Z,7.07
2023-04-20T07:43:51.264Z,7.25
2023-04-20T07:48:52.695Z,6.45
2023-04-20T07:53:54.180Z,5.35
2023-04-20T07:58:55.719Z,6.13
2023-04-20T08:03:57.428Z,4.50
2023-04-20T08:08:59.188Z,4.10
2023-04-20T08:14:00.665Z,3.42
2023-04-20T08:19:02.129Z,4.10
2023-04-20T08:24:04.466Z,2.88
2023-04-20T08:29:05.965Z,4.20
2023-04-20T08:34:07.412Z,4.50
2023-04-20T08:39:18.907Z,4.30
2023-04-20T08:44:20.556Z,4.13
2023-04-20T08:49:22.384Z,4.07
2023-04-20T08:54:24.820Z,5.03
2023-04-20T08:59:26.344Z,4.80
2023-04-20T09:04:28.185Z,5.13
2023-04-20T09:09:29.769Z,3.85
2023-04-20T09:14:42.768Z,4.20
2023-04-20T09:19:45.390Z,5.07
2023-04-20T09:24:47.112Z,4.80
2023-04-20T09:30:02.063Z,5.40
2023-04-20T09:35:03.674Z,5.40
2023-04-20T09:40:06.654Z,4.15
2023-04-20T09:45:08.827Z,5.10
2023-04-20T09:50:24.645Z,4.20
2023-04-20T09:55:30.791Z,4.75
2023-04-20T10:00:32.277Z,5.85
2023-04-20T10:05:35.588Z,8.40
2023-04-20T10:10:48.676Z,5.15
2023-04-20T10:15:50.179Z,5.53
2023-04-20T10:21:03.894Z,5.00
2023-04-20T10:26:05.402Z,3.88
2023-04-20T10:31:08.255Z,4.18
2023-04-20T10:36:09.864Z,4.40
2023-04-20T10:41:13.144Z,3.00
2023-04-20T10:46:18.540Z,3.20
2023-04-20T10:51:20.589Z,2.50
2023-04-20T10:56:22.082Z,2.60
2023-04-20T11:01:23.592Z,2.70
2023-04-20T11:06:25.140Z,2.40
2023-04-20T11:11:27.848Z,2.40
2023-04-20T11:16:44.279Z,2.10
2023-04-20T11:26:51.874Z,4.18
2023-04-20T11:31:53.494Z,2.67
2023-04-20T11:36:55.090Z,2.63
2023-04-20T11:41:56.741Z,6.40
2023-04-20T11:46:58.936Z,2.28
2023-04-20T11:52:00.404Z,2.67
2023-04-20T11:57:01.853Z,2.40
2023-04-20T12:02:03.466Z,4.45
2023-04-20T12:07:05.053Z,2.58
2023-04-20T12:12:07.586Z,3.83
2023-04-20T12:17:09.050Z,2.70
2023-04-20T12:22:10.508Z,2.80
2023-04-20T12:27:11.992Z,3.00
2023-04-20T12:32:13.463Z,4.38
2023-04-20T12:37:15.068Z,8.23
2023-04-20T12:42:16.509Z,3.85
2023-04-20T12:47:17.939Z,3.42
2023-04-20T12:52:19.439Z,3.22
2023-04-20T12:57:20.880Z,3.30
2023-04-20T13:02:22.562Z,4.65
2023-04-20T13:07:24.736Z,4.63
2023-04-20T13:12:26.377Z,3.85
2023-04-20T13:17:27.886Z,3.80
2023-04-20T13:22:29.324Z,3.42
2023-04-20T13:27:30.825Z,3.30
2023-04-20T13:32:32.992Z,3.83
2023-04-20T13:37:34.501Z,4.45
2023-04-20T13:42:35.997Z,3.40
2023-04-20T13:47:39.359Z,3.58
2023-04-20T13:52:40.931Z,3.33
2023-04-20T13:57:42.445Z,3.08
2023-04-20T14:02:44.062Z,6.13
2023-04-20T14:07:45.521Z,3.70
2023-04-20T14:12:47.025Z,3.65
2023-04-20T14:17:49.690Z,4.40
2023-04-20T14:22:52.967Z,4.40
2023-04-20T14:27:54.401Z,4.10
2023-04-20T14:32:57.309Z,4.03
2023-04-20T14:37:58.833Z,4.00
2023-04-20T14:43:00.401Z,3.25
2023-04-20T14:48:01.877Z,3.97
2023-04-20T14:53:03.397Z,3.67
2023-04-20T14:58:04.913Z,4.22
2023-04-20T15:03:06.500Z,4.85
2023-04-20T15:08:08.087Z,4.88
2023-04-20T15:13:09.555Z,5.18
2023-04-20T15:18:11.043Z,4.25
2023-04-20T15:23:12.621Z,3.53
2023-04-20T15:28:14.147Z,3.83
2023-04-20T15:33:15.734Z,3.15
2023-04-20T15:38:17.171Z,3.83
2023-04-20T15:43:18.669Z,6.55
2023-04-20T15:48:20.146Z,4.55
2023-04-20T15:53:21.758Z,4.57
2023-04-20T15:58:23.250Z,3.83
2023-04-20T16:03:24.881Z,5.55
2023-04-20T16:08:26.376Z,4.50
2023-04-20T16:13:27.816Z,4.10
2023-04-20T16:18:29.392Z,5.20
2023-04-20T16:23:30.826Z,3.75
2023-04-20T16:28:32.274Z,6.35
2023-04-20T16:33:36.772Z,5.72
2023-04-20T16:38:38.444Z,7.30
2023-04-20T16:43:39.902Z,6.15
2023-04-20T16:48:41.679Z,5.80
2023-04-20T16:53:43.163Z,6.03
2023-04-20T16:58:44.594Z,5.80
2023-04-20T17:03:46.275Z,4.88
2023-04-20T17:08:47.836Z,4.55
2023-04-20T17:13:49.265Z,5.78
2023-04-20T17:18:50.679Z,18.60
2023-04-20T17:23:52.084Z,5.75
2023-04-20T17:28:53.594Z,6.30
2023-04-20T17:33:55.121Z,6.93
2023-04-20T17:38:56.566Z,6.15
2023-04-20T17:43:58.005Z,3.33
2023-04-20T17:49:00.609Z,4.13
2023-04-20T17:54:02.154Z,3.30
2023-04-20T17:59:03.761Z,4.97
2023-04-20T18:04:05.622Z,5.28
2023-04-20T18:09:07.253Z,2.13
2023-04-20T18:14:08.892Z,2.53
2023-04-20T18:19:10.397Z,2.58
2023-04-20T18:24:11.952Z,2.53
2023-04-20T18:29:13.459Z,3.10
2023-04-20T18:34:15.287Z,2.75
2023-04-20T18:39:16.738Z,2.50
2023-04-20T18:44:18.502Z,2.28
2023-04-20T18:49:20.196Z,2.65
2023-04-20T18:54:21.690Z,2.83
2023-04-20T18:59:23.095Z,3.15
2023-04-20T19:04:24.835Z,3.80
2023-04-20T19:09:26.334Z,3.63
2023-04-20T19:14:27.831Z,2.72
2023-04-20T19:19:29.250Z,2.13
2023-04-20T19:24:31.057Z,2.72
2023-04-20T19:29:32.527Z,3.05
2023-04-20T19:34:34.047Z,2.88
2023-04-20T19:39:35.486Z,3.10
2023-04-20T19:44:36.913Z,3.30
2023-04-20T19:49:38.425Z,4.68
2023-04-20T19:54:39.929Z,2.60
2023-04-20T19:59:41.373Z,3.10
2023-04-20T20:04:43.144Z,3.95
2023-04-20T20:09:44.722Z,2.83
2023-04-20T20:14:46.182Z,4.20
2023-04-20T20:19:47.649Z,3.30
2023-04-20T20:24:49.135Z,3.85
2023-04-20T20:29:50.558Z,3.88
2023-04-20T20:34:52.061Z,3.30
2023-04-20T20:39:53.490Z,3.20
2023-04-20T20:44:54.900Z,3.95
2023-04-20T20:49:56.348Z,3.40
2023-04-20T20:54:57.828Z,3.65
2023-04-20T20:59:59.266Z,4.35
2023-04-20T21:05:00.693Z,3.80
2023-04-20T21:10:02.512Z,3.58
2023-04-20T21:15:04.273Z,3.38
2023-04-20T21:20:06.626Z,3.08
2023-04-20T21:25:08.245Z,3.63
2023-04-20T21:30:10.582Z,3.45
2023-04-20T21:35:12.098Z,3.35
2023-04-20T21:40:13.538Z,4.00
2023-04-20T21:45:15.312Z,4.38
2023-04-20T21:50:16.844Z,4.25
2023-04-20T21:55:18.381Z,3.40
2023-04-20T22:00:20.734Z,3.80
2023-04-20T22:05:22.358Z,3.88
2023-04-20T22:10:28.006Z,4.68
2023-04-20T22:15:29.736Z,4.75
2023-04-20T22:20:31.908Z,5.28
2023-04-20T22:25:33.358Z,6.90
2023-04-20T22:30:35.288Z,4.97
2023-04-20T22:35:36.784Z,3.67
2023-04-20T22:40:38.246Z,3.65
2023-04-20T22:45:39.860Z,3.22
2023-04-20T22:50:41.460Z,4.13
2023-04-20T22:55:42.896Z,5.18
2023-04-20T23:00:44.465Z,3.65
2023-04-20T23:05:45.951Z,4.88
2023-04-20T23:10:47.392Z,4.25
2023-04-20T23:15:48.877Z,6.32
2023-04-20T23:20:50.368Z,4.47
2023-04-20T23:25:51.886Z,3.53
2023-04-20T23:30:53.329Z,3.80
2023-04-20T23:35:54.761Z,3.58
2023-04-20T23:40:56.278Z,3.75
2023-04-20T23:45:57.770Z,3.65
2023-04-20T23:50:59.635Z,3.15
2023-04-20T23:56:01.075Z,3.70
